Time;durP1;ratioP1;P1;durP2;ratioP2;P2;SDS_P1;SDS_P2;PMS_P1;PMS_P2;Temp;Humidity;BMP_temperature;BMP_pressure;BME280_temperature;BME280_humidity;BME280_pressure;Samples;Min_cycle;Max_cycle;Signal;HPM_P1;HPM_P2
2022/12/21 00:01:20;;;;;;;;;;;;;;;11.17;44.39;100491.91;4943376;28;98792;-67
2022/12/21 00:03:46;;;;;;;;;;;;;;;11.17;44.30;100473.81;4961957;28;98756;-65
2022/12/21 00:06:12;;;;;;;;;;;;;;;11.16;44.56;100483.00;4945027;28;98093;-65
2022/12/21 00:08:39;;;;;;;;;;;;;;;11.17;44.89;100483.81;4944025;28;124718;-65
2022/12/21 00:11:05;;;;;;;;;;;;;;;11.15;44.62;100484.06;4942905;28;98120;-65
2022/12/21 00:13:31;;;;;;;;;;;;;;;11.15;44.67;100485.94;4944439;28;128196;-65
2022/12/21 00:16:02;;;;;;;;;;;;;;;11.16;44.45;100501.88;4961119;28;100466;-68
2022/12/21 00:18:30;;;;;;;;;;;;;;;11.15;44.28;100492.16;4931273;28;99105;-65
2022/12/21 00:20:57;;;;;;;;;;;;;;;11.16;44.25;100495.66;4959400;28;114345;-68
2022/12/21 00:23:23;;;;;;;;;;;;;;;11.15;44.32;100485.94;4943756;28;98080;-65
2022/12/21 00:25:49;;;;;;;;;;;;;;;11.15;44.51;100492.16;4942808;28;102291;-64
2022/12/21 00:28:15;;;;;;;;;;;;;;;11.16;44.42;100496.50;4939791;28;127476;-67
2022/12/21 00:30:41;;;;;;;;;;;;;;;11.16;44.56;100488.41;4944380;28;122863;-64
2022/12/21 00:33:07;;;;;;;;;;;;;;;11.16;44.61;100487.56;4956208;28;127307;-67
2022/12/21 00:35:33;;;;;;;;;;;;;;;11.15;44.74;100481.38;4939344;28;127922;-64
2022/12/21 00:37:59;;;;;;;;;;;;;;;11.16;44.64;100482.16;4973743;28;127906;-67
2022/12/21 00:40:25;;;;;;;;;;;;;;;11.15;44.32;100483.25;4957107;28;115695;-64
2022/12/21 00:42:50;;;;;;;;;;;;;;;11.15;44.56;100491.34;4938720;28;127675;-64
2022/12/21 00:45:16;;;;;;;;;;;;;;;11.16;44.40;100487.56;4942594;28;127357;-64
2022/12/21 00:47:43;;;;;;;;;;;;;;;11.15;44.61;100497.56;4938825;28;126464;-64
2022/12/21 00:50:09;;;;;;;;;;;;;;;11.15;44.58;100491.34;4924612;28;98004;-64
2022/12/21 00:52:35;;;;;;;;;;;;;;;11.16;44.56;100496.50;4930727;28;98510;-64
2022/12/21 00:55:01;;;;;;;;;;;;;;;11.16;44.50;100490.25;4944335;28;118235;-64
2022/12/21 00:57:28;;;;;;;;;;;;;;;11.17;44.22;100489.22;4922836;28;128687;-67
2022/12/21 00:59:54;;;;;;;;;;;;;;;11.16;44.35;100483.00;4940800;28;106809;-67
2022/12/21 01:02:20;;;;;;;;;;;;;;;11.17;44.27;100492.72;4935666;28;127202;-64
2022/12/21 01:04:46;;;;;;;;;;;;;;;11.17;44.50;100486.50;4923252;28;127473;-67
2022/12/21 01:07:11;;;;;;;;;;;;;;;11.18;44.30;100493.50;4920301;28;125344;-63
2022/12/21 01:09:37;;;;;;;;;;;;;;;11.18;44.36;100497.03;4957584;28;100276;-63
2022/12/21 01:12:03;;;;;;;;;;;;;;;11.19;44.22;100492.44;4924320;28;127791;-67
2022/12/21 01:14:29;;;;;;;;;;;;;;;11.20;44.48;100483.25;4923484;28;128577;-67
2022/12/21 01:16:55;;;;;;;;;;;;;;;11.18;44.44;100480.81;4924076;28;126327;-66
2022/12/21 01:19:21;;;;;;;;;;;;;;;11.17;44.66;100476.53;4924882;28;123078;-67
2022/12/21 01:21:47;;;;;;;;;;;;;;;11.19;44.47;100489.72;4938893;28;128067;-63
2022/12/21 01:24:13;;;;;;;;;;;;;;;11.19;44.31;100478.94;4925344;28;128747;-67
2022/12/21 01:26:39;;;;;;;;;;;;;;;11.18;44.63;100478.13;4925484;28;100035;-63
2022/12/21 01:29:05;;;;;;;;;;;;;;;11.18;44.14;100461.94;4942391;28;122931;-63
2022/12/21 01:31:31;;;;;;;;;;;;;;;11.17;44.27;100460.34;4924251;28;128140;-63
2022/12/21 01:33:56;;;;;;;;;;;;;;;11.18;44.33;100461.94;4934294;28;127289;-63
2022/12/21 01:36:23;;;;;;;;;;;;;;;11.17;44.45;100457.63;4938618;28;127023;-63
2022/12/21 01:38:49;;;;;;;;;;;;;;;11.17;44.68;100456.84;4922946;28;98426;-67
2022/12/21 01:41:33;;;;;;;;;;;;;;;11.17;44.23;100459.53;4925340;28;99490;-67
2022/12/21 01:44:00;;;;;;;;;;;;;;;11.16;44.63;100457.88;4961694;28;128353;-67
2022/12/21 01:46:43;;;;;;;;;;;;;;;11.15;44.58;100459.78;4936967;28;98111;-68
2022/12/21 01:49:13;;;;;;;;;;;;;;;11.14;44.31;100443.88;4941676;28;97895;-67
2022/12/21 01:51:39;;;;;;;;;;;;;;;11.14;44.70;100435.78;4972380;28;122374;-67
2022/12/21 01:54:10;;;;;;;;;;;;;;;11.14;44.56;100438.47;4943883;28;119051;-64
2022/12/21 01:56:36;;;;;;;;;;;;;;;11.13;44.50;100437.69;4924753;28;98335;-67
2022/12/21 01:59:18;;;;;;;;;;;;;;;11.12;44.51;100433.38;4941306;28;98128;-67
2022/12/21 02:01:44;;;;;;;;;;;;;;;11.11;44.70;100426.34;4940153;28;122519;-67
2022/12/21 02:04:10;;;;;;;;;;;;;;;11.11;44.38;100428.22;4957740;28;125758;-67
2022/12/21 02:06:42;;;;;;;;;;;;;;;11.10;44.51;100432.00;4954931;28;127338;-64
2022/12/21 02:09:08;;;;;;;;;;;;;;;11.10;44.29;100432.00;4944576;28;98929;-68
2022/12/21 02:11:34;;;;;;;;;;;;;;;11.09;44.48;100427.72;4941704;28;128337;-68
2022/12/21 02:13:59;;;;;;;;;;;;;;;11.09;44.62;100425.00;4951488;28;127386;-67
2022/12/21 02:17:04;;;;;;;;;;;;;;;11.07;44.55;100419.88;4936472;28;128836;-68
2022/12/21 02:20:00;;;;;;;;;;;;;;;11.06;44.52;100419.06;4969327;28;99570;-68
2022/12/21 02:22:34;;;;;;;;;;;;;;;11.06;44.52;100416.38;4962889;28;98302;-67
2022/12/21 02:25:31;;;;;;;;;;;;;;;11.07;44.78;100422.56;4965766;28;124674;-68
2022/12/21 02:28:16;;;;;;;;;;;;;;;11.05;44.75;100416.66;4970203;28;98093;-65
2022/12/21 02:31:05;;;;;;;;;;;;;;;11.06;44.75;100419.06;4971694;28;98028;-69
2022/12/21 02:33:50;;;;;;;;;;;;;;;11.06;44.46;100415.56;4969135;28;98603;-68
2022/12/21 02:36:43;;;;;;;;;;;;;;;11.06;44.48;100410.16;4971112;27;98061;-68
2022/12/21 02:39:34;;;;;;;;;;;;;;;11.06;44.45;100400.19;4967149;28;98095;-67
2022/12/21 02:45:22;;;;;;;;;;;;;;;11.06;44.56;100397.47;4937222;28;98418;-65
2022/12/21 02:47:58;;;;;;;;;;;;;;;11.05;44.41;100400.47;4936958;28;98435;-68
2022/12/21 02:50:27;;;;;;;;;;;;;;;11.04;44.48;100396.97;4937780;28;125806;-68
2022/12/21 02:52:54;;;;;;;;;;;;;;;11.01;44.35;100386.72;4926092;28;98416;-65
2022/12/21 02:55:20;;;;;;;;;;;;;;;11.00;44.42;100384.25;4938053;28;127143;-64
2022/12/21 02:57:46;;;;;;;;;;;;;;;10.99;44.55;100391.56;4922764;28;128850;-65
2022/12/21 03:00:17;;;;;;;;;;;;;;;10.98;44.64;100389.13;4920309;28;102764;-67
2022/12/21 03:05:54;;;;;;;;;;;;;;;10.96;44.52;100397.47;4935033;28;98209;-67
2022/12/21 03:08:24;;;;;;;;;;;;;;;10.97;44.66;100398.31;4939375;28;100393;-68
2022/12/21 03:11:01;;;;;;;;;;;;;;;10.96;44.60;100396.69;4953496;28;117817;-68
2022/12/21 03:13:38;;;;;;;;;;;;;;;10.96;44.49;100393.97;4933942;28;98047;-65
2022/12/21 03:16:16;;;;;;;;;;;;;;;10.96;44.41;100396.69;4935887;28;129419;-67
2022/12/21 03:18:45;;;;;;;;;;;;;;;10.96;44.44;100399.38;4935015;28;98251;-68
2022/12/21 03:21:31;;;;;;;;;;;;;;;10.96;44.39;100399.38;4948410;28;99393;-68
2022/12/21 03:24:11;;;;;;;;;;;;;;;10.96;44.65;100388.59;4926566;28;99489;-65
2022/12/21 03:26:45;;;;;;;;;;;;;;;10.95;44.58;100379.69;4948424;28;105576;-65
2022/12/21 03:29:13;;;;;;;;;;;;;;;10.96;44.71;100381.31;4937211;28;99649;-68
2022/12/21 03:31:41;;;;;;;;;;;;;;;10.96;44.39;100381.31;4920251;28;120919;-65
2022/12/21 03:34:18;;;;;;;;;;;;;;;10.97;44.57;100377.53;4937529;28;98113;-65
2022/12/21 03:36:50;;;;;;;;;;;;;;;10.98;44.37;100373.75;4936389;28;98132;-65
2022/12/21 03:39:18;;;;;;;;;;;;;;;10.98;44.65;100379.16;4919011;28;104092;-65
2022/12/21 03:42:10;;;;;;;;;;;;;;;10.98;44.27;100372.94;4926696;28;121057;-64
2022/12/21 03:44:39;;;;;;;;;;;;;;;10.99;44.54;100361.06;4938895;28;98226;-63
2022/12/21 03:47:11;;;;;;;;;;;;;;;11.00;44.45;100371.63;4931682;28;99061;-67
2022/12/21 03:49:49;;;;;;;;;;;;;;;11.00;44.28;100366.22;4937601;28;118289;-63
2022/12/21 03:52:16;;;;;;;;;;;;;;;11.00;44.54;100366.22;4934238;28;99010;-67
2022/12/21 03:54:48;;;;;;;;;;;;;;;11.01;44.41;100367.81;4933677;28;98381;-67
2022/12/21 03:57:13;;;;;;;;;;;;;;;11.01;44.71;100367.03;4934434;28;99539;-68
2022/12/21 03:59:41;;;;;;;;;;;;;;;11.02;44.75;100366.75;4916784;28;126891;-64
2022/12/21 04:02:22;;;;;;;;;;;;;;;11.02;44.34;100368.63;4948305;28;115412;-64
2022/12/21 04:04:52;;;;;;;;;;;;;;;11.02;44.34;100364.03;4954736;28;99445;-64
2022/12/21 04:07:23;;;;;;;;;;;;;;;11.03;44.46;100357.56;4922065;28;98460;-68
2022/12/21 04:09:59;;;;;;;;;;;;;;;11.03;44.66;100360.25;4925067;28;98582;-67
2022/12/21 04:12:37;;;;;;;;;;;;;;;11.03;44.72;100360.25;4939887;28;98174;-68
2022/12/21 04:15:18;;;;;;;;;;;;;;;11.05;44.74;100360.00;4938765;28;98167;-68
2022/12/21 04:17:46;;;;;;;;;;;;;;;11.03;44.62;100362.94;4921221;28;98417;-67
2022/12/21 04:20:14;;;;;;;;;;;;;;;11.04;44.54;100361.06;4939464;28;98420;-64
2022/12/21 04:28:22;;;;;;;;;;;;;;;11.03;44.34;100354.84;4927509;28;98123;-64
2022/12/21 04:30:48;;;;;;;;;;;;;;;11.04;44.39;100352.97;4940038;28;97945;-67
2022/12/21 04:33:16;;;;;;;;;;;;;;;11.04;44.74;100348.41;4945403;28;98046;-67
2022/12/21 04:37:30;;;;;;;;;;;;;;;11.03;44.67;100352.16;4937221;28;98043;-67
2022/12/21 04:38:29;;;;;;;;;;;;;;;11.04;44.41;100351.09;4938015;28;98272;-64
2022/12/21 04:40:55;;;;;;;;;;;;;;;11.05;44.34;100347.31;4934310;28;99699;-64
2022/12/21 04:43:22;;;;;;;;;;;;;;;11.06;44.45;100348.94;4928835;28;118546;-67
2022/12/21 04:45:47;;;;;;;;;;;;;;;11.06;44.47;100351.63;4945527;28;121164;-67
2022/12/21 04:48:14;;;;;;;;;;;;;;;11.06;44.50;100343.53;4939983;28;127278;-64
2022/12/21 04:50:41;;;;;;;;;;;;;;;11.06;44.54;100348.94;4938650;28;98227;-67
2022/12/21 04:53:07;;;;;;;;;;;;;;;11.07;44.71;100341.63;4925742;28;98271;-64
2022/12/21 04:55:33;;;;;;;;;;;;;;;11.07;44.67;100342.44;4938577;28;105792;-64
2022/12/21 04:57:58;;;;;;;;;;;;;;;11.07;44.44;100347.03;4921924;28;127619;-67
2022/12/21 05:00:24;;;;;;;;;;;;;;;11.09;44.76;100355.69;4938136;28;128422;-67
2022/12/21 05:02:50;;;;;;;;;;;;;;;11.09;44.58;100352.97;4941946;28;126437;-64
2022/12/21 05:05:16;;;;;;;;;;;;;;;11.09;44.78;100344.88;4940461;28;123580;-64
2022/12/21 05:07:42;;;;;;;;;;;;;;;11.09;44.74;100347.59;4942401;28;128170;-67
2022/12/21 05:10:09;;;;;;;;;;;;;;;11.10;44.59;100343.00;4926144;28;98203;-64
2022/12/21 05:12:35;;;;;;;;;;;;;;;11.11;44.37;100344.59;4924934;28;106611;-64
2022/12/21 05:15:01;;;;;;;;;;;;;;;11.12;44.72;100341.66;4940891;28;122926;-64
2022/12/21 05:17:27;;;;;;;;;;;;;;;11.12;44.63;100328.16;4924029;28;127280;-64
2022/12/21 05:19:52;;;;;;;;;;;;;;;11.12;44.46;100325.47;4941485;28;108493;-64
2022/12/21 05:22:18;;;;;;;;;;;;;;;11.13;44.43;100326.25;4945343;28;127394;-64
2022/12/21 05:24:44;;;;;;;;;;;;;;;11.13;44.50;100320.88;4928530;28;98091;-64
2022/12/21 05:27:11;;;;;;;;;;;;;;;11.13;44.43;100326.25;4941802;28;128078;-64
2022/12/21 05:29:37;;;;;;;;;;;;;;;11.13;44.42;100337.84;4925036;28;106589;-68
2022/12/21 05:32:03;;;;;;;;;;;;;;;11.13;44.82;100340.56;4940282;28;127620;-64
2022/12/21 05:34:29;;;;;;;;;;;;;;;11.13;44.79;100337.06;4941246;28;118739;-64
2022/12/21 05:36:55;;;;;;;;;;;;;;;11.13;44.67;100335.16;4924146;28;127032;-68
2022/12/21 05:39:21;;;;;;;;;;;;;;;11.13;44.76;100339.75;4921155;28;110586;-67
2022/12/21 05:41:47;;;;;;;;;;;;;;;11.13;44.72;100332.47;4950354;28;126806;-68
2022/12/21 05:44:12;;;;;;;;;;;;;;;11.13;44.88;100334.34;4953051;28;123875;-67
2022/12/21 05:46:38;;;;;;;;;;;;;;;11.14;44.68;100330.56;4957294;28;125646;-67
2022/12/21 05:49:04;;;;;;;;;;;;;;;11.15;44.74;100332.19;4938538;28;118713;-67
2022/12/21 05:51:30;;;;;;;;;;;;;;;11.13;44.75;100326.25;4938433;28;125217;-64
2022/12/21 05:53:56;;;;;;;;;;;;;;;11.15;44.64;100332.19;4973997;27;121524;-67
2022/12/21 05:56:22;;;;;;;;;;;;;;;11.13;44.51;100329.78;4957342;28;129052;-67
2022/12/21 05:58:49;;;;;;;;;;;;;;;11.14;44.50;100334.06;4947801;28;98949;-67
2022/12/21 06:01:15;;;;;;;;;;;;;;;11.14;44.75;100330.56;4941382;28;97979;-67
2022/12/21 06:03:41;;;;;;;;;;;;;;;11.12;44.65;100328.16;4958751;28;111337;-64
2022/12/21 06:06:11;;;;;;;;;;;;;;;11.14;44.88;100325.19;4941419;28;122092;-64
2022/12/21 06:08:37;;;;;;;;;;;;;;;11.14;44.43;100327.88;4955220;28;113094;-64
2022/12/21 06:11:08;;;;;;;;;;;;;;;11.15;44.63;100321.38;4957894;28;106916;-68
2022/12/21 06:13:34;;;;;;;;;;;;;;;11.20;44.82;100315.97;4939291;28;98448;-67
2022/12/21 06:16:10;;;;;;;;;;;;;;;11.27;44.75;100313.78;4952962;28;129016;-67
2022/12/21 06:18:36;;;;;;;;;;;;;;;11.34;45.01;100308.09;4953951;28;126983;-68
2022/12/21 06:21:02;;;;;;;;;;;;;;;11.41;44.59;100324.81;4952473;28;98206;-65
2022/12/21 06:23:28;;;;;;;;;;;;;;;11.46;44.74;100316.69;4954835;28;98111;-65
2022/12/21 06:25:58;;;;;;;;;;;;;;;11.49;44.72;100322.34;4936721;28;98380;-68
2022/12/21 06:28:24;;;;;;;;;;;;;;;11.53;44.67;100319.91;4956443;28;98772;-65
2022/12/21 06:30:53;;;;;;;;;;;;;;;11.57;44.70;100333.66;4939779;28;112974;-68
2022/12/21 06:33:19;;;;;;;;;;;;;;;11.58;44.63;100324.47;4954798;28;98031;-68
2022/12/21 06:35:45;;;;;;;;;;;;;;;11.61;44.81;100315.81;4939252;28;98194;-65
2022/12/21 06:38:11;;;;;;;;;;;;;;;11.64;44.62;100323.38;4956087;28;98512;-65
2022/12/21 06:40:37;;;;;;;;;;;;;;;11.64;44.88;100320.69;4934652;28;127894;-68
2022/12/21 06:43:03;;;;;;;;;;;;;;;11.66;44.65;100318.50;4954132;28;120853;-68
2022/12/21 06:45:29;;;;;;;;;;;;;;;11.66;44.52;100324.69;4939935;28;112072;-65
2022/12/21 06:47:55;;;;;;;;;;;;;;;11.66;44.77;100323.88;4940838;28;128963;-65
2022/12/21 06:50:21;;;;;;;;;;;;;;;11.67;44.85;100317.41;4932750;28;127234;-65
2022/12/21 06:52:47;;;;;;;;;;;;;;;11.67;44.74;100318.22;4935877;28;115495;-65
2022/12/21 06:55:14;;;;;;;;;;;;;;;11.69;44.67;100320.63;4920969;28;99747;-67
2022/12/21 06:57:39;;;;;;;;;;;;;;;11.68;44.66;100314.44;4936874;28;122314;-68
2022/12/21 07:00:09;;;;;;;;;;;;;;;11.70;44.75;100325.75;4950605;28;125682;-65
2022/12/21 07:02:35;;;;;;;;;;;;;;;11.70;44.71;100324.94;4966376;27;98201;-68
2022/12/21 07:05:02;;;;;;;;;;;;;;;11.69;44.81;100318.75;4937583;28;117612;-68
2022/12/21 07:07:27;;;;;;;;;;;;;;;11.70;44.76;100311.44;4951277;28;121195;-68
2022/12/21 07:09:53;;;;;;;;;;;;;;;11.68;44.49;100311.75;4933526;28;128114;-65
2022/12/21 07:12:19;;;;;;;;;;;;;;;11.70;44.67;100320.34;4938202;28;122989;-65
2022/12/21 07:14:45;;;;;;;;;;;;;;;11.70;44.56;100314.94;4966267;28;128502;-65
2022/12/21 07:17:11;;;;;;;;;;;;;;;11.71;44.59;100331.94;4949608;28;128728;-65
2022/12/21 07:19:37;;;;;;;;;;;;;;;11.70;44.70;100323.06;4950718;28;125924;-65
2022/12/21 07:22:03;;;;;;;;;;;;;;;11.71;44.77;100326.56;4938541;28;123002;-68
2022/12/21 07:24:29;;;;;;;;;;;;;;;11.71;44.64;100326.56;4930112;28;128351;-65
2022/12/21 07:26:55;;;;;;;;;;;;;;;11.70;44.68;100328.44;4930023;28;128706;-68
2022/12/21 07:29:20;;;;;;;;;;;;;;;11.72;44.48;100328.19;4952694;28;127226;-68
2022/12/21 07:31:46;;;;;;;;;;;;;;;11.73;44.61;100335.19;4932539;28;125739;-65
2022/12/21 07:34:12;;;;;;;;;;;;;;;11.73;44.72;100335.19;4952796;28;129108;-68
2022/12/21 07:36:38;;;;;;;;;;;;;;;11.73;44.84;100336.00;4955961;28;128477;-65
2022/12/21 07:39:04;;;;;;;;;;;;;;;11.74;44.77;100334.91;4957059;28;98145;-65
2022/12/21 07:41:30;;;;;;;;;;;;;;;11.76;44.87;100345.44;4941603;28;121815;-65
2022/12/21 07:43:56;;;;;;;;;;;;;;;11.75;44.76;100339.25;4934810;28;129926;-67
2022/12/21 07:46:22;;;;;;;;;;;;;;;11.77;44.79;100342.47;4937505;28;128458;-66
2022/12/21 07:48:49;;;;;;;;;;;;;;;11.76;44.65;100340.84;4936981;28;98998;-68
2022/12/21 07:51:15;;;;;;;;;;;;;;;11.78;44.66;100337.88;4939663;28;99034;-65
2022/12/21 07:53:41;;;;;;;;;;;;;;;11.79;44.75;100340.31;4941435;28;98425;-65
2022/12/21 07:56:17;;;;;;;;;;;;;;;11.80;44.61;100346.50;4932515;28;128678;-65
2022/12/21 07:58:43;;;;;;;;;;;;;;;11.82;44.62;100338.13;4920328;28;99828;-65
2022/12/21 08:01:13;;;;;;;;;;;;;;;11.83;44.66;100339.72;4921049;28;106558;-65
2022/12/21 08:03:39;;;;;;;;;;;;;;;11.83;44.69;100343.28;4936234;28;98685;-66
2022/12/21 08:06:06;;;;;;;;;;;;;;;11.85;44.58;100346.50;4918850;28;98172;-65
2022/12/21 08:08:32;;;;;;;;;;;;;;;11.85;44.58;100351.91;4922383;28;99514;-65
2022/12/21 08:10:58;;;;;;;;;;;;;;;11.86;44.76;100352.72;4905540;28;98262;-65
2022/12/21 08:13:24;;;;;;;;;;;;;;;11.87;44.55;100349.75;4921490;28;129171;-68
2022/12/21 08:15:58;;;;;;;;;;;;;;;11.87;44.59;100349.75;4925100;28;128324;-68
2022/12/21 08:18:24;;;;;;;;;;;;;;;11.88;44.78;100351.34;4919093;28;117325;-65
2022/12/21 08:20:50;;;;;;;;;;;;;;;11.89;44.62;100349.47;4919732;28;122154;-65
2022/12/21 08:23:16;;;;;;;;;;;;;;;11.89;44.71;100350.25;4933056;28;129132;-65
2022/12/21 08:25:42;;;;;;;;;;;;;;;11.91;44.60;100350.00;4919892;28;128309;-68
2022/12/21 08:28:08;;;;;;;;;;;;;;;11.90;44.52;100349.16;4919729;28;126216;-65
2022/12/21 08:30:34;;;;;;;;;;;;;;;11.91;44.65;100350.81;4936984;28;122791;-65
2022/12/21 08:33:00;;;;;;;;;;;;;;;11.91;44.61;100348.09;4940379;28;128288;-68
2022/12/21 08:35:28;;;;;;;;;;;;;;;11.92;44.67;100352.41;4936984;28;98008;-68
2022/12/21 08:37:54;;;;;;;;;;;;;;;11.93;44.67;100353.22;4920056;28;98888;-68
2022/12/21 08:40:20;;;;;;;;;;;;;;;11.92;44.79;100360.50;4918477;28;122572;-68
2022/12/21 08:42:46;;;;;;;;;;;;;;;11.93;44.66;100355.91;4903487;28;128280;-68
2022/12/21 08:45:12;;;;;;;;;;;;;;;11.92;44.76;100355.13;4901770;28;114011;-65
2022/12/21 08:47:39;;;;;;;;;;;;;;;11.92;44.70;100352.41;4949445;28;99509;-68
2022/12/21 08:50:05;;;;;;;;;;;;;;;11.92;44.58;100362.41;4919408;28;98038;-65
2022/12/21 08:52:31;;;;;;;;;;;;;;;11.93;44.75;100364.81;4903281;28;106587;-68
2022/12/21 08:54:57;;;;;;;;;;;;;;;11.93;45.01;100361.31;4921079;28;113394;-65
2022/12/21 08:57:23;;;;;;;;;;;;;;;11.94;44.74;100362.94;4939237;28;130765;-65
2022/12/21 08:59:49;;;;;;;;;;;;;;;11.92;44.79;100367.81;4915359;28;99013;-68
2022/12/21 09:02:15;;;;;;;;;;;;;;;11.93;44.65;100370.22;4918604;28;98327;-65
2022/12/21 09:04:42;;;;;;;;;;;;;;;11.92;44.57;100371.31;4916037;28;106890;-68
2022/12/21 09:07:08;;;;;;;;;;;;;;;11.93;44.73;100374.81;4915813;28;99194;-65
2022/12/21 09:09:33;;;;;;;;;;;;;;;11.93;44.68;100372.94;4937940;28;122739;-65
2022/12/21 09:12:00;;;;;;;;;;;;;;;11.95;44.69;100378.06;4935256;28;98592;-68
2022/12/21 09:14:28;;;;;;;;;;;;;;;11.94;44.69;100379.13;4917368;28;99881;-65
2022/12/21 09:16:54;;;;;;;;;;;;;;;11.93;44.58;100381.03;4936472;28;108514;-68
2022/12/21 09:19:20;;;;;;;;;;;;;;;11.93;44.76;100388.34;4917093;28;122626;-65
2022/12/21 09:21:46;;;;;;;;;;;;;;;11.93;44.63;100375.63;4920303;28;98568;-64
2022/12/21 09:24:13;;;;;;;;;;;;;;;11.95;44.59;100370.78;4918259;28;105563;-64
2022/12/21 09:26:38;;;;;;;;;;;;;;;11.96;44.52;100372.38;4902155;28;99356;-68
2022/12/21 09:29:04;;;;;;;;;;;;;;;11.98;44.60;100372.09;4914585;28;125278;-68
2022/12/21 09:31:30;;;;;;;;;;;;;;;11.99;44.56;100360.22;4914946;28;128297;-68
2022/12/21 09:33:58;;;;;;;;;;;;;;;12.00;44.63;100359.94;4916183;28;127897;-64
2022/12/21 09:36:24;;;;;;;;;;;;;;;12.04;44.51;100362.88;4927974;28;110621;-65
2022/12/21 09:38:50;;;;;;;;;;;;;;;12.06;44.50;100360.69;4918859;28;109514;-68
2022/12/21 09:41:29;;;;;;;;;;;;;;;12.07;44.70;100362.34;4929040;28;113686;-64
2022/12/21 09:44:33;;;;;;;;;;;;;;;12.09;44.54;100365.53;4951992;28;98329;-65
2022/12/21 09:47:01;;;;;;;;;;;;;;;12.12;44.70;100370.41;4889720;28;98715;-68
2022/12/21 09:49:38;;;;;;;;;;;;;;;12.15;44.55;100366.34;4879294;28;121343;-64
2022/12/21 09:52:05;;;;;;;;;;;;;;;12.18;44.47;100354.94;4899898;28;98394;-66
2022/12/21 09:54:38;;;;;;;;;;;;;;;12.20;44.54;100361.69;4921654;28;98288;-67
2022/12/21 09:57:04;;;;;;;;;;;;;;;12.20;44.37;100350.88;4920310;28;124614;-64
2022/12/21 09:59:30;;;;;;;;;;;;;;;12.22;44.54;100358.69;4920397;28;122336;-68
2022/12/21 10:02:16;;;;;;;;;;;;;;;12.22;44.48;100356.00;4929781;28;126867;-64
2022/12/21 10:04:54;;;;;;;;;;;;;;;12.23;44.71;100361.13;4917110;28;123862;-63
2022/12/21 10:07:48;;;;;;;;;;;;;;;12.24;44.37;100359.25;4931932;28;99498;-67
2022/12/21 10:10:31;;;;;;;;;;;;;;;12.27;44.46;100354.09;4946463;28;98200;-63
2022/12/21 10:13:41;;;;;;;;;;;;;;;12.29;44.50;100351.91;4934339;28;98058;-63
2022/12/21 10:16:28;;;;;;;;;;;;;;;12.31;44.39;100354.34;4935389;28;99760;-68
2022/12/21 10:19:02;;;;;;;;;;;;;;;12.36;44.56;100350.78;4936481;28;98943;-67
2022/12/21 10:22:05;;;;;;;;;;;;;;;12.39;44.33;100337.50;4919835;28;98079;-63
2022/12/21 10:24:34;;;;;;;;;;;;;;;12.41;44.51;100329.91;4931516;28;119511;-67
2022/12/21 10:27:14;;;;;;;;;;;;;;;12.43;44.31;100333.16;4937077;28;99010;-64
2022/12/21 10:29:40;;;;;;;;;;;;;;;12.45;44.28;100325.56;4919640;28;98365;-63
2022/12/21 10:32:08;;;;;;;;;;;;;;;12.48;44.56;100332.31;4935477;28;118329;-64
2022/12/21 10:34:35;;;;;;;;;;;;;;;12.48;44.32;100329.59;4919183;28;122107;-64
2022/12/21 10:37:08;;;;;;;;;;;;;;;12.49;44.45;100331.19;4936217;28;100355;-68
2022/12/21 10:39:34;;;;;;;;;;;;;;;12.48;44.46;100329.59;4920779;28;114809;-64
2022/12/21 10:42:07;;;;;;;;;;;;;;;12.47;44.46;100323.38;4938045;28;121754;-64
2022/12/21 10:44:36;;;;;;;;;;;;;;;12.46;44.55;100329.91;4951974;28;126977;-64
2022/12/21 10:47:13;;;;;;;;;;;;;;;12.45;44.68;100319.34;4956418;28;118010;-64
2022/12/21 10:49:40;;;;;;;;;;;;;;;12.44;44.66;100323.94;4934427;28;98154;-67
2022/12/21 10:52:32;;;;;;;;;;;;;;;12.43;44.60;100314.22;4939185;28;98241;-67
2022/12/21 10:54:58;;;;;;;;;;;;;;;12.41;44.51;100302.06;4950841;28;98035;-68
2022/12/21 10:57:32;;;;;;;;;;;;;;;12.41;44.49;100302.88;4950573;28;127937;-68
2022/12/21 11:00:23;;;;;;;;;;;;;;;12.42;44.61;100299.13;4937068;28;98289;-67
2022/12/21 11:02:49;;;;;;;;;;;;;;;12.43;44.56;100297.22;4917983;28;98334;-64
2022/12/21 11:05:26;;;;;;;;;;;;;;;12.43;44.52;100297.22;4919097;28;98271;-64
2022/12/21 11:07:52;;;;;;;;;;;;;;;12.43;44.69;100289.91;4953524;28;98668;-68
2022/12/21 11:10:28;;;;;;;;;;;;;;;12.43;44.56;100292.59;4951577;28;127687;-64
2022/12/21 11:12:54;;;;;;;;;;;;;;;12.44;44.61;100296.91;4952560;28;98164;-64
2022/12/21 11:15:21;;;;;;;;;;;;;;;12.44;44.55;100296.91;4941244;28;99764;-68
2022/12/21 11:17:47;;;;;;;;;;;;;;;12.45;44.71;100298.53;4943597;28;99133;-68
2022/12/21 11:20:15;;;;;;;;;;;;;;;12.45;44.71;100289.59;4940670;28;126841;-65
2022/12/21 11:22:43;;;;;;;;;;;;;;;12.47;44.59;100290.16;4957120;28;117763;-68
2022/12/21 11:25:26;;;;;;;;;;;;;;;12.46;44.66;100286.63;4921940;28;113978;-65
2022/12/21 11:27:56;;;;;;;;;;;;;;;12.47;44.76;100287.44;4952730;28;107540;-65
2022/12/21 11:30:24;;;;;;;;;;;;;;;12.45;44.71;100289.59;4956341;28;112029;-65
2022/12/21 11:32:50;;;;;;;;;;;;;;;12.44;44.77;100290.72;4959076;28;101817;-65
2022/12/21 11:35:21;;;;;;;;;;;;;;;12.44;44.52;100274.50;4922238;28;98208;-65
2022/12/21 11:37:53;;;;;;;;;;;;;;;12.44;44.50;100267.19;4955097;28;99631;-68
2022/12/21 11:40:23;;;;;;;;;;;;;;;12.46;44.54;100270.41;4971568;28;99107;-65
2022/12/21 11:42:56;;;;;;;;;;;;;;;12.47;44.75;100272.03;4971627;28;111799;-65
2022/12/21 11:45:32;;;;;;;;;;;;;;;12.48;44.76;100273.63;4959761;28;98199;-65
2022/12/21 11:48:36;;;;;;;;;;;;;;;12.50;44.56;100270.66;4957249;28;119927;-68
2022/12/21 11:51:23;;;;;;;;;;;;;;;12.50;44.46;100262.56;4971499;28;97895;-65
2022/12/21 11:54:14;;;;;;;;;;;;;;;12.54;44.66;100263.59;4973252;28;100533;-65
2022/12/21 11:57:03;;;;;;;;;;;;;;;12.54;44.47;100263.59;4971488;27;99534;-65
2022/12/21 12:00:08;;;;;;;;;;;;;;;12.55;44.61;100265.19;4940345;28;125147;-65
2022/12/21 12:02:43;;;;;;;;;;;;;;;12.58;44.73;100266.53;4956458;28;98433;-68
2022/12/21 12:05:28;;;;;;;;;;;;;;;12.60;44.53;100253.53;4970925;28;98319;-65
2022/12/21 12:08:10;;;;;;;;;;;;;;;12.63;44.51;100255.66;4954898;28;99728;-68
2022/12/21 12:11:01;;;;;;;;;;;;;;;12.64;44.71;100247.25;4956688;28;98763;-65
2022/12/21 12:14:12;;;;;;;;;;;;;;;12.67;44.75;100246.69;4970229;27;100329;-65
2022/12/21 12:16:54;;;;;;;;;;;;;;;12.70;44.63;100239.91;4939676;28;109323;-65
2022/12/21 12:19:29;;;;;;;;;;;;;;;12.73;44.50;100242.00;4950355;28;116933;-65
2022/12/21 12:22:29;;;;;;;;;;;;;;;12.75;44.42;100237.94;4967013;28;98003;-65
2022/12/21 12:24:55;;;;;;;;;;;;;;;12.80;44.49;100242.47;4969052;28;98156;-65
2022/12/21 12:27:31;;;;;;;;;;;;;;;12.84;44.63;100240.00;4970484;28;98193;-68
2022/12/21 12:30:05;;;;;;;;;;;;;;;12.87;44.10;100237.53;4972061;28;98694;-65
2022/12/21 12:32:53;;;;;;;;;;;;;;;12.89;44.22;100237.25;4955157;28;98355;-68
2022/12/21 12:35:48;;;;;;;;;;;;;;;12.90;44.56;100241.59;4950768;28;99633;-68
2022/12/21 12:38:38;;;;;;;;;;;;;;;12.90;44.24;100238.88;4938651;28;98295;-68
2022/12/21 12:41:10;;;;;;;;;;;;;;;12.89;44.66;100235.38;4938561;28;99947;-68
2022/12/21 12:43:44;;;;;;;;;;;;;;;12.90;44.53;100241.59;4970766;28;98447;-68
2022/12/21 12:46:33;;;;;;;;;;;;;;;12.89;44.40;100234.53;4971661;28;98214;-65
2022/12/21 12:49:33;;;;;;;;;;;;;;;12.89;44.67;100242.66;4953599;28;98736;-68
2022/12/21 12:52:21;;;;;;;;;;;;;;;12.85;44.80;100239.75;4971695;28;98321;-65
2022/12/21 12:55:03;;;;;;;;;;;;;;;12.83;44.52;100244.63;4968521;28;118078;-68
2022/12/21 12:57:31;;;;;;;;;;;;;;;12.82;44.75;100237.59;4968959;28;116276;-68
2022/12/21 13:00:09;;;;;;;;;;;;;;;12.81;44.79;100235.16;4957430;28;114078;-65
2022/12/21 13:03:04;;;;;;;;;;;;;;;12.80;44.80;100236.28;4938854;28;99983;-68